Overview Statistics Trail Chart Weather Telemetry Raw packets
 

This is the latest recevied weather packets stored in our database for station/object SV9TNF-51. If no packets are shown the sender has not sent any weather packets the latest 10 day(s).

<< 34 35 36 37 38 39 40 >>
Time Temp. Humidity Pressure Rain* Wind** Luminosity Snow
1788437953 32.22° C 46% 1009.8 hPa 0 mm 8.49 m/s, 327° - -
1788437653 31.67° C 47% 1009.8 hPa 0 mm 7.15 m/s, 290° - -
1788437353 31.67° C 47% 1009.8 hPa 0 mm 11.18 m/s, 312° - -
1788437053 33.33° C 44% 1009.8 hPa 0 mm 7.6 m/s, 114° - -
1788436753 33.33° C 43% 1009.8 hPa 0 mm 7.6 m/s, 112° - -
1788436453 33.33° C 43% 1009.8 hPa 0 mm 2.68 m/s, 124° - -
1788436153 33.33° C 42% 1009.8 hPa 0 mm 3.13 m/s, 120° - -
1788435852 32.78° C 44% 1009.8 hPa 0 mm 3.58 m/s, 8° - -
1788435553 32.22° C 43% 1009.8 hPa 0 mm 15.2 m/s, 320° - -
1788435253 33.33° C 41% 1009.8 hPa 0 mm 4.02 m/s, 150° - -
1788434952 33.89° C 41% 1009.8 hPa 0 mm 8.05 m/s, 110° - -
1788434652 34.44° C 42% 1009.8 hPa 0 mm 2.68 m/s, 153° - -
1788434352 32.78° C 44% 1009.8 hPa 0 mm 8.49 m/s, 348° - -
1788434052 33.33° C 44% 1009.8 hPa 0 mm 8.94 m/s, 350° - -
1788433752 33.33° C 44% 1009.8 hPa 0 mm 3.58 m/s, 160° - -
1788433452 32.78° C 46% 1009.8 hPa 0 mm 9.83 m/s, 340° - -
1788433152 32.22° C 47% 1009.8 hPa 0 mm 15.65 m/s, 357° - -
1788432852 32.22° C 48% 1009.8 hPa 0 mm 7.6 m/s, 342° - -
1788432552 32.78° C 45% 1009.8 hPa 0 mm 10.28 m/s, 281° - -
1788432251 32.78° C 46% 1009.8 hPa 0 mm 4.92 m/s, 351° - -
1788431951 32.78° C 48% 1009.8 hPa 0 mm 10.73 m/s, 329° - -
1788431651 32.78° C 49% 1009.8 hPa 0 mm 5.81 m/s, 242° - -
1788431351 33.33° C 49% 1009.8 hPa 0 mm 7.6 m/s, 112° - -
1788431051 32.78° C 49% 1009.8 hPa 0 mm 4.92 m/s, 0° - -
1788430751 32.22° C 51% 1009.8 hPa 0 mm 6.26 m/s, 241° - -

* Rain latest hour (hover to see other rain measurements)
** Current wind speed in m/s (hover to see current wind gust speed)